Ithomi — V7UZ9 — position and weather

sailwx.info

Track history (hours):
 
Tides and Currents Weather Stations Pressure Air Temp Water Temp Dewpoint Dewpoint Depression Visibility Wind Speed Wind Dir Waves Ship Positions

Ithomi

Last reported at 2016-Jan-16 02:17 UTC. Time now 2016-Feb-13 17:15 UTC.
Position N 01°16' E 104°06'.
Warning: this ship's position is 28 days out of date.

Length 189 m; draft 6.8 m.

Type: Cargo ship. MMSI: 538004069.

Date/timePositionNaut miles runAvg speedWind from/ knotsBaromVisibWave heightAir tempDewpointWater temp
2016-Jan-16 02:17N 01°16' E 104°06'5 4.7
2016-Jan-16 01:11N 01°17' E 104°01'0 0.0
2016-Jan-16 00:11N 01°17' E 104°01'0 0.1
2016-Jan-15 23:32N 01°17' E 104°01'0 0.0
2016-Jan-15 22:20N 01°17' E 104°01'0 0.1
2016-Jan-15 21:26N 01°17' E 104°01'0 0.1
2016-Jan-15 20:32N 01°17' E 104°01'0 0.0
2016-Jan-15 19:32N 01°17' E 104°01'0 0.0
2016-Jan-15 18:32N 01°17' E 104°01'0 0.0
2016-Jan-15 14:26N 01°17' E 104°02'0 0.1
2016-Jan-15 13:14N 01°17' E 104°02'0 0.0
2016-Jan-15 12:32N 01°17' E 104°02'0 0.0
2016-Jan-15 11:32N 01°17' E 104°02'0 0.0
2016-Jan-15 10:08N 01°17' E 104°02'0 0.0
2016-Jan-15 09:32N 01°17' E 104°02'0 0.2
2016-Jan-15 08:32N 01°17' E 104°01'0 0.0
2016-Jan-15 05:20N 01°17' E 104°01'0 0.1
2016-Jan-15 04:32N 01°17' E 104°01'0 0.1
2016-Jan-15 03:33N 01°17' E 104°01'5 4.8
2016-Jan-15 02:33N 01°15' E 103°57'6 5.7
2016-Jan-15 01:33N 01°12' E 103°53'8 8.1
2016-Jan-15 00:33N 01°07' E 103°46'9 8.1
2016-Jan-14 23:27N 01°03' E 103°38'  
Track history (hours):
 
Tides and Currents Weather Stations Pressure Air Temp Water Temp Dewpoint Dewpoint Depression Visibility Wind Speed Wind Dir Waves Ship Positions

Ithomi

Last reported at 2016-Jan-16 02:17 UTC. Time now 2016-Feb-13 17:15 UTC.
Position N 01°16' E 104°06'.
Warning: this ship's position is 28 days out of date.

Length 189 m; draft 6.8 m.

Type: Cargo ship. MMSI: 538004069.

Date/timePositionNaut miles runAvg speedWind from/ knotsBaromVisibWave heightAir tempDewpointWater temp
2016-Jan-16 02:17N 01°16' E 104°06'5 4.7
2016-Jan-16 01:11N 01°17' E 104°01'0 0.0
2016-Jan-16 00:11N 01°17' E 104°01'0 0.1
2016-Jan-15 23:32N 01°17' E 104°01'0 0.0
2016-Jan-15 22:20N 01°17' E 104°01'0 0.1
2016-Jan-15 21:26N 01°17' E 104°01'0 0.1
2016-Jan-15 20:32N 01°17' E 104°01'0 0.0
2016-Jan-15 19:32N 01°17' E 104°01'0 0.0
2016-Jan-15 18:32N 01°17' E 104°01'0 0.0
2016-Jan-15 14:26N 01°17' E 104°02'0 0.1
2016-Jan-15 13:14N 01°17' E 104°02'0 0.0
2016-Jan-15 12:32N 01°17' E 104°02'0 0.0
2016-Jan-15 11:32N 01°17' E 104°02'0 0.0
2016-Jan-15 10:08N 01°17' E 104°02'0 0.0
2016-Jan-15 09:32N 01°17' E 104°02'0 0.2
2016-Jan-15 08:32N 01°17' E 104°01'0 0.0
2016-Jan-15 05:20N 01°17' E 104°01'0 0.1
2016-Jan-15 04:32N 01°17' E 104°01'0 0.1
2016-Jan-15 03:33N 01°17' E 104°01'5 4.8
2016-Jan-15 02:33N 01°15' E 103°57'6 5.7
2016-Jan-15 01:33N 01°12' E 103°53'8 8.1
2016-Jan-15 00:33N 01°07' E 103°46'9 8.1
2016-Jan-14 23:27N 01°03' E 103°38'  

Dump ship's entire track history